createdAt,value
2022-12-08T00:00:10.559Z,144.90
2022-12-08T00:01:22.018Z,140.36
2022-12-08T00:02:26.543Z,141.64
2022-12-08T00:03:35.357Z,134.10
2022-12-08T00:05:01.734Z,135.28
2022-12-08T00:06:23.164Z,142.00
2022-12-08T00:07:42.459Z,137.43
2022-12-08T00:09:00.832Z,133.55
2022-12-08T00:10:39.849Z,138.43
2022-12-08T00:11:31.434Z,139.09
2022-12-08T00:12:38.455Z,140.43
2022-12-08T00:13:41.940Z,140.31
2022-12-08T00:14:50.607Z,136.13
2022-12-08T00:15:54.104Z,137.96
2022-12-08T00:17:01.440Z,139.76
2022-12-08T00:18:06.760Z,135.67
2022-12-08T00:19:15.295Z,135.69
2022-12-08T00:20:18.850Z,135.47
2022-12-08T00:21:24.944Z,130.17
2022-12-08T00:22:32.621Z,141.98
2022-12-08T00:23:36.826Z,138.57
2022-12-08T00:24:45.747Z,134.26
2022-12-08T00:25:49.211Z,138.49
2022-12-08T00:26:55.446Z,135.07
2022-12-08T00:27:59.884Z,135.06
2022-12-08T00:29:06.909Z,139.40
2022-12-08T00:30:11.652Z,136.68
2022-12-08T00:31:17.933Z,139.08
2022-12-08T00:32:21.617Z,140.04
2022-12-08T00:33:28.244Z,137.39
2022-12-08T00:34:38.770Z,145.32
2022-12-08T00:35:43.426Z,139.94
2022-12-08T00:36:50.166Z,145.54
2022-12-08T00:37:59.078Z,146.28
2022-12-08T00:39:06.965Z,138.50
2022-12-08T00:40:14.863Z,139.17
2022-12-08T00:41:45.288Z,141.64
2022-12-08T00:42:48.807Z,140.00
2022-12-08T00:43:54.850Z,138.80
2022-12-08T00:44:58.222Z,137.19
2022-12-08T00:46:05.099Z,136.23
2022-12-08T00:47:08.611Z,136.66
2022-12-08T00:48:15.093Z,135.13
2022-12-08T00:49:19.553Z,136.57
2022-12-08T00:50:28.294Z,136.42
2022-12-08T00:51:33.094Z,139.32
2022-12-08T00:52:39.430Z,128.35
2022-12-08T00:53:42.881Z,132.11
2022-12-08T00:54:48.941Z,128.31
2022-12-08T00:55:52.349Z,122.83
2022-12-08T00:56:59.772Z,121.39
2022-12-08T00:58:03.155Z,123.14
2022-12-08T00:59:10.750Z,121.79
2022-12-08T01:00:18.323Z,125.96
2022-12-08T01:01:21.908Z,127.15
2022-12-08T01:02:28.848Z,133.76
2022-12-08T01:03:32.350Z,126.55
2022-12-08T01:04:38.739Z,129.13
2022-12-08T01:05:44.767Z,120.38
2022-12-08T01:06:52.310Z,120.90
2022-12-08T01:07:59.285Z,121.58
2022-12-08T01:09:03.015Z,120.29
2022-12-08T01:10:11.628Z,125.78
2022-12-08T01:11:18.537Z,131.92
2022-12-08T01:12:24.531Z,127.97
2022-12-08T01:13:29.222Z,135.68
2022-12-08T01:14:35.799Z,146.21
2022-12-08T01:15:39.206Z,130.99
2022-12-08T01:16:46.530Z,137.37
2022-12-08T01:17:49.971Z,137.06
2022-12-08T01:18:57.595Z,128.22
2022-12-08T01:20:02.692Z,142.37
2022-12-08T01:21:11.806Z,149.47
2022-12-08T01:22:17.833Z,135.73
2022-12-08T01:23:21.486Z,136.13
2022-12-08T01:24:28.381Z,125.61
2022-12-08T01:25:34.361Z,123.74
2022-12-08T01:26:40.439Z,129.46
2022-12-08T01:27:43.859Z,129.68
2022-12-08T01:28:51.123Z,131.98
2022-12-08T01:29:55.446Z,133.15
2022-12-08T01:31:02.745Z,129.50
2022-12-08T01:32:06.500Z,131.77
2022-12-08T01:33:12.538Z,146.10
2022-12-08T01:34:16.219Z,132.86
2022-12-08T01:35:23.107Z,131.37
2022-12-08T01:36:32.221Z,129.68
2022-12-08T01:37:39.774Z,137.02
2022-12-08T01:38:43.256Z,133.95
2022-12-08T01:39:49.413Z,125.31
2022-12-08T01:40:53.594Z,125.14
2022-12-08T01:41:59.652Z,128.78
2022-12-08T01:43:03.094Z,128.63
2022-12-08T01:44:53.733Z,130.07
2022-12-08T01:46:00.775Z,132.96
2022-12-08T01:47:04.688Z,128.56
2022-12-08T01:48:19.724Z,128.61
2022-12-08T01:49:30.929Z,128.87
2022-12-08T01:50:39.005Z,127.67
2022-12-08T01:51:57.783Z,129.29
2022-12-08T01:53:13.917Z,130.29
2022-12-08T01:54:20.041Z,124.33
2022-12-08T01:55:36.485Z,124.12
2022-12-08T01:56:55.230Z,133.67
2022-12-08T01:58:14.054Z,126.07
2022-12-08T01:59:19.743Z,126.17
2022-12-08T02:00:29.814Z,125.82
2022-12-08T02:01:33.846Z,125.97
2022-12-08T02:02:53.058Z,127.66
2022-12-08T02:04:01.882Z,130.59
2022-12-08T02:05:10.743Z,129.93
2022-12-08T02:06:16.897Z,125.08
2022-12-08T02:07:27.253Z,126.16
2022-12-08T02:08:33.474Z,127.93
2022-12-08T02:09:44.696Z,123.90
2022-12-08T02:10:50.329Z,136.25
2022-12-08T02:12:02.625Z,140.61
2022-12-08T02:13:11.630Z,143.41
2022-12-08T02:14:18.317Z,140.62
2022-12-08T02:15:39.337Z,132.68
2022-12-08T02:17:02.143Z,138.93
2022-12-08T02:18:34.268Z,134.47
2022-12-08T02:20:25.275Z,133.71
2022-12-08T02:21:42.341Z,127.89
2022-12-08T02:23:04.605Z,133.84
2022-12-08T02:24:23.386Z,128.32
2022-12-08T02:25:50.372Z,139.18
2022-12-08T02:27:39.676Z,127.39
2022-12-08T02:29:35.051Z,133.62
2022-12-08T02:30:57.683Z,140.65
2022-12-08T02:32:38.835Z,149.87
2022-12-08T02:34:21.597Z,148.17
2022-12-08T02:35:37.956Z,153.27
2022-12-08T02:37:02.207Z,137.02
2022-12-08T02:38:21.651Z,138.52
2022-12-08T02:39:47.127Z,143.59
2022-12-08T02:41:05.229Z,139.25
2022-12-08T02:42:25.999Z,147.02
2022-12-08T02:43:43.310Z,136.71
2022-12-08T02:45:00.966Z,140.15
2022-12-08T02:46:16.535Z,143.88
2022-12-08T02:47:25.912Z,129.84
2022-12-08T02:48:36.114Z,131.53
2022-12-08T02:49:45.177Z,129.34
2022-12-08T02:50:48.825Z,125.65
2022-12-08T02:51:54.775Z,119.32
2022-12-08T02:52:58.304Z,114.19
2022-12-08T02:54:07.394Z,117.65
2022-12-08T02:55:23.614Z,120.56
2022-12-08T02:57:03.516Z,115.18
2022-12-08T02:58:32.385Z,116.90
2022-12-08T03:00:05.420Z,113.58
2022-12-08T03:01:40.737Z,113.58
2022-12-08T03:03:07.541Z,116.72
2022-12-08T03:04:27.110Z,112.18
2022-12-08T03:06:00.918Z,102.95
2022-12-08T03:07:18.562Z,114.71
2022-12-08T03:08:33.806Z,115.32
2022-12-08T03:09:51.112Z,112.85
2022-12-08T03:11:08.760Z,115.04
2022-12-08T03:12:26.775Z,117.85
2022-12-08T03:13:42.574Z,112.14
2022-12-08T03:14:56.322Z,116.25
2022-12-08T03:16:09.193Z,122.44
2022-12-08T03:17:19.848Z,127.62
2022-12-08T03:18:32.641Z,125.55
2022-12-08T03:19:45.769Z,121.93
2022-12-08T03:20:52.664Z,125.94
2022-12-08T03:22:05.848Z,129.24
2022-12-08T03:23:17.876Z,125.02
2022-12-08T03:24:24.407Z,125.68
2022-12-08T03:25:38.155Z,127.98
2022-12-08T03:26:50.915Z,128.55
2022-12-08T03:27:58.200Z,127.81
2022-12-08T03:29:01.930Z,122.70
2022-12-08T03:30:10.937Z,136.43
2022-12-08T03:31:19.695Z,135.27
2022-12-08T03:32:35.445Z,130.31
2022-12-08T03:33:50.331Z,138.56
2022-12-08T03:35:03.709Z,137.81
2022-12-08T03:36:13.614Z,136.62
2022-12-08T03:37:20.430Z,136.91
2022-12-08T03:38:25.129Z,138.81
2022-12-08T03:39:32.269Z,135.24
2022-12-08T03:40:36.173Z,141.85
2022-12-08T03:41:42.229Z,135.16
2022-12-08T03:42:45.615Z,137.04
2022-12-08T03:43:55.349Z,141.00
2022-12-08T03:44:59.568Z,146.07
2022-12-08T03:46:05.899Z,142.28
2022-12-08T03:47:09.514Z,146.78
2022-12-08T03:48:15.458Z,146.29
2022-12-08T03:49:19.022Z,153.18
2022-12-08T03:50:26.699Z,143.24
2022-12-08T03:51:32.657Z,147.41
2022-12-08T03:52:38.677Z,150.37
2022-12-08T03:53:43.486Z,142.72
2022-12-08T03:54:49.456Z,141.84
2022-12-08T03:55:54.264Z,148.46
2022-12-08T03:57:00.356Z,142.49
2022-12-08T03:58:03.768Z,139.69
2022-12-08T03:59:10.817Z,142.52
2022-12-08T04:00:17.529Z,146.32
2022-12-08T04:01:25.734Z,145.00
2022-12-08T04:02:29.159Z,144.33
2022-12-08T04:03:35.209Z,140.97
2022-12-08T04:04:41.187Z,137.55
2022-12-08T04:05:44.569Z,140.84
2022-12-08T04:06:54.336Z,139.96
2022-12-08T04:07:58.911Z,135.51
2022-12-08T04:09:05.040Z,132.51
2022-12-08T04:10:10.724Z,138.38
2022-12-08T04:11:17.190Z,138.61
2022-12-08T04:12:21.692Z,138.93
2022-12-08T04:13:27.710Z,141.33
2022-12-08T04:14:31.095Z,137.72
2022-12-08T04:15:37.167Z,139.33
2022-12-08T04:16:40.732Z,140.89
2022-12-08T04:17:47.596Z,139.49
2022-12-08T04:18:51.535Z,138.95
2022-12-08T04:19:57.667Z,145.90
2022-12-08T04:21:01.428Z,147.23
2022-12-08T04:22:10.404Z,145.22
2022-12-08T04:23:14.924Z,146.45
2022-12-08T04:24:21.209Z,145.71
2022-12-08T04:25:24.556Z,144.83
2022-12-08T04:26:30.612Z,145.84
2022-12-08T04:27:33.968Z,141.67
2022-12-08T04:28:40.924Z,139.28
2022-12-08T04:29:44.468Z,144.47
2022-12-08T04:30:52.069Z,141.35
2022-12-08T04:31:55.512Z,147.53
2022-12-08T04:33:01.893Z,148.74
2022-12-08T04:34:06.120Z,142.56
2022-12-08T04:35:12.800Z,138.71
2022-12-08T04:36:16.444Z,138.81
2022-12-08T04:37:25.051Z,136.74
2022-12-08T04:38:29.170Z,144.85
2022-12-08T04:39:35.988Z,148.73
2022-12-08T04:40:40.247Z,148.07
2022-12-08T04:41:46.209Z,156.25
2022-12-08T04:42:50.035Z,153.39
2022-12-08T04:43:56.016Z,154.41
2022-12-08T04:45:00.247Z,164.87
2022-12-08T04:46:10.859Z,164.96
2022-12-08T04:47:17.048Z,166.02
2022-12-08T04:48:23.188Z,174.80
2022-12-08T04:49:29.255Z,181.85
2022-12-08T04:50:33.657Z,181.37
2022-12-08T04:51:39.765Z,177.74
2022-12-08T04:52:45.916Z,184.57
2022-12-08T04:53:52.186Z,172.98
2022-12-08T04:54:55.812Z,158.08
2022-12-08T04:56:03.240Z,162.62
2022-12-08T04:57:06.735Z,182.80
2022-12-08T04:58:16.710Z,167.09
2022-12-08T04:59:20.386Z,153.58
2022-12-08T05:00:26.952Z,141.69
2022-12-08T05:01:31.277Z,159.53
2022-12-08T05:02:37.854Z,157.77
2022-12-08T05:03:44.204Z,158.40
2022-12-08T05:04:47.861Z,153.54
2022-12-08T05:05:54.284Z,145.94
2022-12-08T05:07:01.310Z,136.87
2022-12-08T05:08:10.276Z,142.63
2022-12-08T05:09:16.342Z,156.41
2022-12-08T05:10:23.768Z,150.81
2022-12-08T05:11:29.846Z,155.91
2022-12-08T05:12:34.369Z,145.57
2022-12-08T05:13:40.772Z,138.61
2022-12-08T05:14:44.324Z,135.71
2022-12-08T05:15:50.384Z,145.57
2022-12-08T05:16:54.035Z,160.69
2022-12-08T05:18:01.013Z,157.85
2022-12-08T05:19:05.616Z,154.53
2022-12-08T05:20:14.413Z,155.54
2022-12-08T05:21:17.964Z,149.09
2022-12-08T05:22:25.359Z,150.44
2022-12-08T05:23:35.431Z,151.03
2022-12-08T05:24:43.985Z,162.84
2022-12-08T05:25:53.587Z,161.02
2022-12-08T05:26:59.737Z,152.80
2022-12-08T05:28:32.648Z,146.43
2022-12-08T05:29:31.161Z,161.99
2022-12-08T05:30:37.135Z,161.63
2022-12-08T05:31:40.778Z,147.56
2022-12-08T05:32:47.143Z,147.68
2022-12-08T05:33:52.673Z,149.81
2022-12-08T05:34:59.597Z,151.65
2022-12-08T05:36:04.225Z,159.60
2022-12-08T05:37:10.934Z,161.67
2022-12-08T05:38:19.463Z,160.25
2022-12-08T05:39:29.082Z,157.08
2022-12-08T05:40:36.363Z,151.62
2022-12-08T05:41:41.789Z,153.37
2022-12-08T05:42:49.986Z,151.80
2022-12-08T05:43:54.173Z,155.53
2022-12-08T05:45:00.333Z,157.48
2022-12-08T05:46:05.126Z,166.85
2022-12-08T05:47:11.403Z,160.67
2022-12-08T05:48:14.938Z,158.72
2022-12-08T05:49:21.493Z,152.04
2022-12-08T05:50:28.113Z,148.10
2022-12-08T05:51:38.118Z,157.16
2022-12-08T05:52:41.718Z,161.64
2022-12-08T05:53:47.937Z,161.21
2022-12-08T05:54:54.172Z,158.52
2022-12-08T05:56:00.583Z,165.33
2022-12-08T05:57:04.948Z,167.11
2022-12-08T05:58:15.103Z,157.89
2022-12-08T05:59:18.648Z,161.09
2022-12-08T06:00:25.481Z,162.84
2022-12-08T06:01:32.208Z,165.80
2022-12-08T06:02:39.258Z,163.81
2022-12-08T06:03:43.827Z,164.30
2022-12-08T06:04:49.888Z,160.90
2022-12-08T06:05:53.543Z,160.53
2022-12-08T06:06:59.623Z,163.07
2022-12-08T06:08:04.143Z,161.69
2022-12-08T06:09:10.620Z,162.33
2022-12-08T06:10:16.862Z,165.10
2022-12-08T06:11:25.441Z,160.16
2022-12-08T06:12:29.077Z,155.36
2022-12-08T06:13:36.017Z,158.15
2022-12-08T06:14:42.924Z,160.26
2022-12-08T06:15:46.365Z,153.12
2022-12-08T06:16:52.455Z,147.76
2022-12-08T06:17:56.614Z,151.61
2022-12-08T06:19:03.507Z,151.25
2022-12-08T06:20:09.316Z,154.42
2022-12-08T06:21:18.960Z,156.08
2022-12-08T06:22:22.586Z,162.91
2022-12-08T06:23:28.594Z,161.88
2022-12-08T06:24:35.459Z,163.69
2022-12-08T06:25:44.263Z,165.70
2022-12-08T06:26:47.925Z,160.15
2022-12-08T06:27:54.419Z,157.25
2022-12-08T06:29:00.966Z,154.85
2022-12-08T06:30:07.686Z,164.62
2022-12-08T06:31:18.653Z,164.19
2022-12-08T06:32:27.233Z,169.21
2022-12-08T06:33:33.718Z,160.62
2022-12-08T06:34:37.110Z,160.71
2022-12-08T06:35:44.028Z,168.62
2022-12-08T06:36:47.491Z,168.63
2022-12-08T06:37:53.952Z,161.97
2022-12-08T06:39:00.345Z,187.10
2022-12-08T06:40:07.511Z,182.15
2022-12-08T06:41:19.762Z,165.27
2022-12-08T06:42:38.531Z,156.19
2022-12-08T06:43:45.157Z,161.13
2022-12-08T06:44:49.164Z,158.20
2022-12-08T06:45:56.537Z,156.96
2022-12-08T06:47:03.610Z,152.08
2022-12-08T06:48:07.710Z,154.48
2022-12-08T06:49:13.943Z,152.13
2022-12-08T06:50:17.492Z,160.01
2022-12-08T06:51:25.762Z,157.75
2022-12-08T06:52:30.190Z,155.76
2022-12-08T06:53:36.172Z,154.22
2022-12-08T06:54:39.829Z,150.80
2022-12-08T06:56:03.323Z,149.81
2022-12-08T06:57:09.627Z,145.37
2022-12-08T06:58:18.184Z,146.08
2022-12-08T06:59:26.296Z,154.99
2022-12-08T07:00:29.861Z,154.93
2022-12-08T07:01:36.252Z,153.91
2022-12-08T07:02:42.530Z,153.35
2022-12-08T07:03:49.532Z,148.37
2022-12-08T07:04:55.711Z,150.28
2022-12-08T07:06:04.077Z,156.09
2022-12-08T07:07:08.100Z,148.91
2022-12-08T07:08:14.569Z,150.36
2022-12-08T07:09:21.484Z,155.48
2022-12-08T07:10:25.086Z,156.89
2022-12-08T07:11:31.819Z,159.79
2022-12-08T07:12:38.277Z,157.63
2022-12-08T07:13:44.554Z,156.06
2022-12-08T07:14:51.556Z,161.51
2022-12-08T07:15:57.608Z,156.16
2022-12-08T07:17:03.781Z,153.53
2022-12-08T07:18:07.446Z,151.55
2022-12-08T07:19:14.543Z,156.22
2022-12-08T07:20:22.092Z,152.30
2022-12-08T07:21:28.348Z,151.33
2022-12-08T07:22:31.760Z,155.80
2022-12-08T07:23:38.601Z,159.09
2022-12-08T07:24:44.828Z,158.63
2022-12-08T07:25:49.178Z,156.08
2022-12-08T07:26:55.226Z,158.85
2022-12-08T07:28:03.997Z,159.96
2022-12-08T07:29:10.867Z,154.61
2022-12-08T07:30:15.579Z,162.14
2022-12-08T07:31:26.969Z,166.19
2022-12-08T07:32:30.536Z,171.75
2022-12-08T07:33:37.990Z,171.88
2022-12-08T07:34:41.590Z,167.72
2022-12-08T07:35:49.408Z,170.02
2022-12-08T07:36:53.833Z,172.32
2022-12-08T07:38:00.250Z,161.87
2022-12-08T07:39:04.321Z,157.56
2022-12-08T07:40:14.150Z,171.38
2022-12-08T07:41:23.322Z,180.36
2022-12-08T07:42:30.976Z,169.30
2022-12-08T07:43:37.425Z,164.59
2022-12-08T07:44:43.791Z,166.36
2022-12-08T07:45:48.375Z,167.82
2022-12-08T07:46:54.544Z,167.08
2022-12-08T07:47:59.079Z,165.89
2022-12-08T07:49:05.201Z,167.32
2022-12-08T07:50:09.793Z,170.18
2022-12-08T07:51:19.085Z,185.29
2022-12-08T07:52:23.551Z,176.41
2022-12-08T07:53:30.443Z,184.38
2022-12-08T07:54:36.620Z,182.04
2022-12-08T07:55:43.464Z,177.47
2022-12-08T07:56:47.075Z,165.81
2022-12-08T07:57:55.380Z,160.91
2022-12-08T07:59:02.914Z,157.59
2022-12-08T08:00:11.381Z,153.93
2022-12-08T08:01:28.713Z,163.14
2022-12-08T08:02:35.081Z,167.09
2022-12-08T08:03:41.420Z,178.36
2022-12-08T08:04:48.577Z,187.40
2022-12-08T08:05:56.582Z,191.57
2022-12-08T08:07:03.014Z,193.85
2022-12-08T08:08:09.692Z,205.88
2022-12-08T08:09:15.880Z,208.51
2022-12-08T08:10:20.815Z,182.11
2022-12-08T08:11:28.873Z,183.17
2022-12-08T08:12:33.157Z,174.92
2022-12-08T08:13:40.289Z,168.39
2022-12-08T08:14:49.102Z,160.12
2022-12-08T08:15:56.940Z,169.46
2022-12-08T08:17:00.906Z,167.70
2022-12-08T08:18:10.220Z,160.98
2022-12-08T08:19:14.161Z,162.06
2022-12-08T08:20:21.552Z,163.19
2022-12-08T08:21:45.194Z,166.36
2022-12-08T08:22:56.104Z,168.19
2022-12-08T08:24:00.322Z,159.49
2022-12-08T08:25:07.426Z,160.66
2022-12-08T08:26:11.282Z,171.91
2022-12-08T08:27:19.857Z,164.57
2022-12-08T08:28:23.430Z,161.04
2022-12-08T08:29:29.555Z,160.65
2022-12-08T08:30:36.187Z,160.35
2022-12-08T08:31:42.377Z,157.55
2022-12-08T08:32:49.669Z,161.22
2022-12-08T08:33:56.979Z,150.88
2022-12-08T08:35:00.556Z,151.59
2022-12-08T08:36:11.792Z,146.13
2022-12-08T08:37:19.615Z,159.31
2022-12-08T08:38:26.777Z,155.76
2022-12-08T08:39:40.989Z,153.31
2022-12-08T08:40:44.980Z,165.45
2022-12-08T08:41:51.063Z,161.54
2022-12-08T08:42:54.634Z,177.71
2022-12-08T08:44:01.640Z,185.44
2022-12-08T08:45:09.089Z,170.31
2022-12-08T08:46:15.201Z,180.00
2022-12-08T08:47:21.471Z,193.97
2022-12-08T08:48:25.649Z,169.32
2022-12-08T08:49:33.310Z,162.68
2022-12-08T08:50:39.514Z,150.21
2022-12-08T08:51:44.023Z,142.92
2022-12-08T08:52:50.569Z,141.73
2022-12-08T08:53:54.083Z,142.27
2022-12-08T08:55:00.975Z,136.73
2022-12-08T08:56:11.078Z,142.39
2022-12-08T08:57:23.636Z,148.30
2022-12-08T08:58:31.417Z,139.50
2022-12-08T08:59:37.477Z,142.34
2022-12-08T09:00:45.475Z,139.90
2022-12-08T09:01:54.444Z,143.79
2022-12-08T09:03:00.571Z,139.56
2022-12-08T09:04:08.557Z,143.87
2022-12-08T09:05:13.614Z,147.54
2022-12-08T09:06:22.069Z,131.97
2022-12-08T09:07:27.248Z,137.00
2022-12-08T09:08:33.334Z,130.81
2022-12-08T09:09:40.535Z,129.34
2022-12-08T09:10:47.706Z,130.78
2022-12-08T09:11:51.956Z,128.89
2022-12-08T09:12:58.035Z,127.93
2022-12-08T09:14:01.551Z,133.43
2022-12-08T09:15:09.091Z,145.37
2022-12-08T09:16:15.873Z,167.80
2022-12-08T09:17:26.535Z,150.56
2022-12-08T09:18:33.149Z,144.20
2022-12-08T09:19:39.180Z,151.48
2022-12-08T09:20:45.441Z,165.97
2022-12-08T09:21:51.688Z,166.36
2022-12-08T09:22:58.646Z,162.73
2022-12-08T09:24:04.746Z,163.05
2022-12-08T09:25:09.479Z,153.47
2022-12-08T09:26:15.784Z,147.92
2022-12-08T09:27:19.333Z,153.61
2022-12-08T09:28:26.235Z,144.54
2022-12-08T09:29:35.444Z,141.52
2022-12-08T09:30:42.691Z,149.24
2022-12-08T09:31:48.924Z,139.78
2022-12-08T09:32:57.714Z,139.19
2022-12-08T09:34:02.392Z,145.44
2022-12-08T09:35:08.997Z,140.59
2022-12-08T09:36:15.461Z,146.16
2022-12-08T09:37:23.163Z,146.83
2022-12-08T09:38:26.544Z,136.48
2022-12-08T09:39:33.366Z,138.42
2022-12-08T09:40:52.835Z,139.59
2022-12-08T09:42:05.279Z,140.93
2022-12-08T09:43:32.725Z,139.14
2022-12-08T09:45:00.519Z,147.57
2022-12-08T09:46:12.499Z,139.18
2022-12-08T09:47:32.132Z,140.60
2022-12-08T09:48:55.998Z,133.78
2022-12-08T09:50:13.874Z,139.97
2022-12-08T09:51:18.185Z,137.93
2022-12-08T09:52:31.075Z,134.73
2022-12-08T09:53:45.476Z,140.40
2022-12-08T09:54:49.156Z,138.19
2022-12-08T09:56:03.301Z,141.69
2022-12-08T09:57:21.281Z,143.37
2022-12-08T09:58:47.864Z,148.98
2022-12-08T10:00:03.387Z,139.24
2022-12-08T10:01:14.855Z,163.17
2022-12-08T10:02:27.493Z,172.47
2022-12-08T10:03:32.032Z,156.82
2022-12-08T10:04:42.635Z,153.53
2022-12-08T10:06:04.507Z,149.70
2022-12-08T10:07:27.156Z,142.07
2022-12-08T10:08:50.024Z,148.15
2022-12-08T10:10:10.556Z,152.38
2022-12-08T10:11:27.593Z,155.74
2022-12-08T10:12:46.352Z,161.46
2022-12-08T10:14:11.574Z,148.75
2022-12-08T10:15:48.979Z,132.53
2022-12-08T10:17:07.776Z,139.09
2022-12-08T10:18:23.342Z,133.40
2022-12-08T10:19:32.125Z,129.36
2022-12-08T10:20:45.562Z,132.92
2022-12-08T10:21:53.886Z,129.94
2022-12-08T10:23:19.382Z,131.63
2022-12-08T10:24:39.170Z,136.32
2022-12-08T10:25:50.528Z,132.01
2022-12-08T10:26:59.210Z,129.21
2022-12-08T10:28:05.465Z,129.41
2022-12-08T10:29:16.088Z,131.81
2022-12-08T10:30:25.651Z,130.02
2022-12-08T10:31:34.746Z,130.73
2022-12-08T10:32:41.426Z,123.62
2022-12-08T10:33:51.132Z,129.70
2022-12-08T10:35:09.543Z,126.54
2022-12-08T10:36:19.154Z,131.42
2022-12-08T10:37:23.000Z,131.88
2022-12-08T10:38:34.371Z,127.24
2022-12-08T10:39:41.418Z,130.72
2022-12-08T10:40:50.755Z,132.73
2022-12-08T10:42:03.108Z,132.84
2022-12-08T10:43:16.136Z,127.06
2022-12-08T10:44:22.287Z,122.68
2022-12-08T10:45:31.301Z,128.72
2022-12-08T10:46:41.941Z,130.80
2022-12-08T10:48:00.468Z,130.25
2022-12-08T10:49:15.716Z,133.04
2022-12-08T10:50:24.723Z,127.59
2022-12-08T10:51:42.489Z,122.59
2022-12-08T10:52:55.717Z,118.03
2022-12-08T10:54:01.899Z,126.42
2022-12-08T10:55:15.514Z,134.53
2022-12-08T10:56:21.885Z,134.51
2022-12-08T10:57:25.695Z,135.57
2022-12-08T10:58:36.956Z,139.33
2022-12-08T10:59:43.106Z,134.47
2022-12-08T11:00:49.465Z,149.17
2022-12-08T11:01:59.300Z,143.45
2022-12-08T11:03:05.741Z,133.29
2022-12-08T11:04:21.536Z,141.64
2022-12-08T11:05:35.213Z,133.35
2022-12-08T11:06:45.636Z,134.21
2022-12-08T11:07:54.179Z,135.47
2022-12-08T11:09:04.538Z,144.31
2022-12-08T11:10:20.725Z,135.59
2022-12-08T11:11:47.339Z,136.12
2022-12-08T11:12:53.625Z,146.13
2022-12-08T11:14:00.498Z,145.82
2022-12-08T11:15:08.901Z,142.11
2022-12-08T11:16:19.639Z,154.93
2022-12-08T11:17:30.571Z,150.62
2022-12-08T11:18:47.165Z,164.12
2022-12-08T11:19:59.226Z,184.60
2022-12-08T11:21:14.827Z,164.03
2022-12-08T11:22:30.734Z,157.05
2022-12-08T11:23:40.193Z,155.63
2022-12-08T11:24:43.528Z,162.76
2022-12-08T11:25:51.240Z,161.53
2022-12-08T11:27:05.329Z,145.30
2022-12-08T11:28:14.758Z,153.02
2022-12-08T11:29:20.871Z,136.83
2022-12-08T11:30:33.544Z,128.14
2022-12-08T11:31:50.039Z,128.19
2022-12-08T11:33:02.694Z,137.12
2022-12-08T11:34:17.548Z,137.73
2022-12-08T11:35:32.398Z,145.11
2022-12-08T11:36:41.254Z,150.56
2022-12-08T11:37:47.430Z,156.18
2022-12-08T11:38:59.835Z,143.06
2022-12-08T11:40:18.245Z,137.37
2022-12-08T11:41:32.485Z,150.33
2022-12-08T11:42:56.631Z,155.89
2022-12-08T11:44:23.917Z,143.68
2022-12-08T11:45:35.438Z,144.45
2022-12-08T11:46:51.749Z,137.53
2022-12-08T11:48:16.657Z,139.84
2022-12-08T11:49:23.739Z,150.37
2022-12-08T11:50:36.912Z,139.85
2022-12-08T11:51:54.156Z,133.39
2022-12-08T11:53:03.286Z,135.03
2022-12-08T11:54:25.376Z,137.64
2022-12-08T11:55:45.230Z,140.81
2022-12-08T11:56:59.539Z,146.08
2022-12-08T11:58:18.647Z,140.84
2022-12-08T11:59:33.915Z,144.18
2022-12-08T12:00:38.284Z,152.27
2022-12-08T12:01:44.606Z,140.48
2022-12-08T12:03:04.126Z,147.93
2022-12-08T12:04:27.223Z,142.14
2022-12-08T12:06:13.591Z,152.53
2022-12-08T12:08:12.527Z,146.12
2022-12-08T12:09:34.658Z,148.26
2022-12-08T12:11:03.665Z,149.45
2022-12-08T12:12:26.444Z,143.13
2022-12-08T12:14:08.652Z,151.38
2022-12-08T12:15:58.774Z,152.48
2022-12-08T12:17:10.544Z,151.62
2022-12-08T12:18:30.477Z,158.16
2022-12-08T12:19:43.472Z,164.70
2022-12-08T12:20:58.110Z,170.88
2022-12-08T12:22:19.237Z,166.00
2022-12-08T12:23:40.975Z,164.40
2022-12-08T12:24:54.307Z,170.45
2022-12-08T12:26:04.613Z,182.59
2022-12-08T12:27:31.005Z,170.89
2022-12-08T12:28:53.534Z,163.06
2022-12-08T12:30:07.841Z,174.84
2022-12-08T12:31:21.127Z,162.14
2022-12-08T12:32:42.702Z,160.50
2022-12-08T12:33:51.920Z,160.07
2022-12-08T12:35:03.909Z,164.80
2022-12-08T12:36:14.865Z,168.93
2022-12-08T12:37:27.898Z,173.53
2022-12-08T12:38:54.322Z,195.96
2022-12-08T12:40:10.038Z,202.63
2022-12-08T12:41:25.470Z,178.10
2022-12-08T12:42:49.364Z,185.90
2022-12-08T12:44:25.999Z,238.43
2022-12-08T12:45:36.180Z,255.50
2022-12-08T12:46:55.856Z,247.23
2022-12-08T12:48:24.637Z,261.92
2022-12-08T12:50:07.581Z,264.60
2022-12-08T12:51:46.562Z,245.41
2022-12-08T12:52:54.650Z,237.54
2022-12-08T12:54:25.220Z,214.44
2022-12-08T12:55:57.797Z,241.87
2022-12-08T12:57:26.888Z,254.52
2022-12-08T12:58:43.958Z,260.45
2022-12-08T13:00:09.109Z,285.57
2022-12-08T13:01:54.220Z,307.82
2022-12-08T13:03:02.073Z,259.05
2022-12-08T13:04:11.181Z,253.76
2022-12-08T13:05:24.078Z,274.39
2022-12-08T13:06:43.808Z,256.98
2022-12-08T13:07:58.312Z,259.41
2022-12-08T13:09:06.535Z,280.53
2022-12-08T13:10:24.485Z,271.37
2022-12-08T13:11:28.485Z,262.49
2022-12-08T13:12:34.867Z,273.50
2022-12-08T13:13:58.428Z,247.68
2022-12-08T13:15:19.877Z,233.58
2022-12-08T13:16:31.728Z,243.02
2022-12-08T13:17:46.822Z,257.08
2022-12-08T13:18:56.718Z,251.20
2022-12-08T13:20:09.125Z,255.92
2022-12-08T13:21:22.087Z,257.76
2022-12-08T13:22:53.118Z,279.60
2022-12-08T13:24:32.637Z,289.25
2022-12-08T13:25:55.161Z,297.95
2022-12-08T13:27:37.148Z,309.59
2022-12-08T13:29:18.478Z,313.68
2022-12-08T13:30:47.321Z,308.53
2022-12-08T13:31:57.245Z,313.92
2022-12-08T13:33:17.832Z,310.81
2022-12-08T13:34:44.792Z,322.38
2022-12-08T13:36:05.293Z,322.87
2022-12-08T13:37:29.465Z,287.76
2022-12-08T13:38:41.904Z,311.64
2022-12-08T13:40:00.836Z,311.95
2022-12-08T13:41:23.700Z,312.80
2022-12-08T13:42:45.607Z,319.65
2022-12-08T13:44:50.856Z,291.20
2022-12-08T13:46:20.194Z,290.82
2022-12-08T13:47:32.279Z,296.75
2022-12-08T13:50:09.852Z,268.94
2022-12-08T13:54:35.315Z,316.97
2022-12-08T13:57:00.865Z,316.25
2022-12-08T13:57:53.594Z,326.12
2022-12-08T13:59:12.386Z,326.88
2022-12-08T14:00:27.600Z,313.95
2022-12-08T14:01:33.931Z,302.87
2022-12-08T14:02:48.139Z,286.66
2022-12-08T14:06:10.464Z,301.43
2022-12-08T14:07:07.925Z,312.44
2022-12-08T14:08:57.943Z,345.39
2022-12-08T14:10:00.084Z,341.54
2022-12-08T14:11:07.506Z,347.14
2022-12-08T14:12:24.821Z,365.55
2022-12-08T14:13:30.353Z,361.28
2022-12-08T14:15:02.530Z,361.16
2022-12-08T14:16:35.866Z,433.20
2022-12-08T14:17:44.301Z,467.40
2022-12-08T14:18:50.387Z,375.73
2022-12-08T14:20:04.447Z,417.07
2022-12-08T14:21:21.745Z,463.11
2022-12-08T14:22:28.513Z,397.57
2022-12-08T14:23:36.488Z,342.89
2022-12-08T14:24:48.689Z,390.44
2022-12-08T14:25:59.618Z,461.48
2022-12-08T14:27:12.857Z,895.23
2022-12-08T14:28:20.210Z,814.58
2022-12-08T14:29:45.980Z,924.69
2022-12-08T14:30:54.192Z,874.06
2022-12-08T14:32:01.262Z,895.55
2022-12-08T14:33:12.617Z,707.29
2022-12-08T14:34:16.530Z,814.25
2022-12-08T14:35:27.919Z,811.11
2022-12-08T14:36:33.643Z,911.55
2022-12-08T14:37:45.405Z,938.18
2022-12-08T14:38:58.852Z,913.10
2022-12-08T14:40:10.280Z,1048.35
2022-12-08T14:41:19.050Z,960.74
2022-12-08T14:42:29.884Z,828.03
2022-12-08T14:43:37.245Z,604.90
2022-12-08T14:44:41.675Z,549.98
2022-12-08T14:45:57.371Z,480.05
2022-12-08T14:47:06.637Z,478.05
2022-12-08T14:48:24.230Z,551.46
2022-12-08T14:49:35.590Z,582.92
2022-12-08T14:50:57.758Z,575.26
2022-12-08T14:52:06.264Z,621.66